Time;durP1;ratioP1;P1;durP2;ratioP2;P2;SDS_P1;SDS_P2;PMS_P1;PMS_P2;Temp;Humidity;BMP_temperature;BMP_pressure;BME280_temperature;BME280_humidity;BME280_pressure;Samples;Min_cycle;Max_cycle;Signal;HPM_P1;HPM_P2
2023/06/01 00:01:37;;;;;;;;;;;;;;;20.54;21.40;101138.56;5051953;28;19919;-47
2023/06/01 00:04:02;;;;;;;;;;;;;;;20.55;21.34;101143.78;5052501;28;19939;-48
2023/06/01 00:06:28;;;;;;;;;;;;;;;20.49;21.62;101140.13;5052744;28;19913;-48
2023/06/01 00:08:57;;;;;;;;;;;;;;;20.41;21.73;101145.13;5053731;28;19960;-45
2023/06/01 00:11:22;;;;;;;;;;;;;;;20.30;21.42;101141.38;5052449;28;19913;-45
2023/06/01 00:13:48;;;;;;;;;;;;;;;20.28;21.50;101149.81;5034540;28;19951;-46
2023/06/01 00:16:13;;;;;;;;;;;;;;;20.15;21.34;101149.22;5052847;28;19912;-48
2023/06/01 00:18:38;;;;;;;;;;;;;;;20.00;21.82;101150.59;5052815;28;19996;-45
2023/06/01 00:21:04;;;;;;;;;;;;;;;19.98;21.52;101149.97;5052470;28;19916;-46
2023/06/01 00:23:29;;;;;;;;;;;;;;;19.91;22.03;101143.84;5052538;28;19913;-45
2023/06/01 00:25:54;;;;;;;;;;;;;;;19.76;22.22;101157.97;5052708;28;20000;-46
2023/06/01 00:28:20;;;;;;;;;;;;;;;19.71;21.92;101149.63;5052317;28;20013;-45
2023/06/01 00:30:45;;;;;;;;;;;;;;;19.81;21.64;101155.31;5052509;28;20348;-45
2023/06/01 00:33:10;;;;;;;;;;;;;;;19.76;22.04;101149.78;5052471;28;19920;-45
2023/06/01 00:35:35;;;;;;;;;;;;;;;19.66;22.32;101150.31;5052854;28;19912;-44
2023/06/01 00:38:01;;;;;;;;;;;;;;;19.62;22.23;101148.31;5056387;28;19920;-44
2023/06/01 00:40:26;;;;;;;;;;;;;;;19.61;22.07;101143.94;5056287;28;19927;-46
2023/06/01 00:42:51;;;;;;;;;;;;;;;19.56;23.03;101151.97;5056308;28;19913;-45
2023/06/01 00:45:16;;;;;;;;;;;;;;;19.52;22.81;101157.09;5056411;28;19913;-45
2023/06/01 00:47:43;;;;;;;;;;;;;;;19.48;22.82;101150.44;5056287;28;19996;-44
2023/06/01 00:50:09;;;;;;;;;;;;;;;19.48;22.18;101145.84;5056281;28;19944;-44
2023/06/01 00:52:36;;;;;;;;;;;;;;;19.46;22.33;101149.84;5056708;28;20273;-44
2023/06/01 00:55:01;;;;;;;;;;;;;;;19.51;22.79;101145.34;5056557;28;19919;-44
2023/06/01 00:57:27;;;;;;;;;;;;;;;19.49;23.14;101142.03;5056226;28;19912;-44
2023/06/01 00:59:53;;;;;;;;;;;;;;;19.53;22.88;101142.38;5055870;28;19967;-45
2023/06/01 01:02:21;;;;;;;;;;;;;;;19.55;23.03;101151.16;5055234;28;19920;-45
2023/06/01 01:04:52;;;;;;;;;;;;;;;19.42;23.16;101151.38;5055807;28;19916;-45
2023/06/01 01:07:20;;;;;;;;;;;;;;;19.33;23.29;101151.75;5055529;28;19913;-47
2023/06/01 01:09:46;;;;;;;;;;;;;;;19.27;23.23;101147.22;5067422;28;19923;-46
2023/06/01 01:12:26;;;;;;;;;;;;;;;19.31;23.19;101145.69;5075499;28;19912;-49
2023/06/01 01:14:52;;;;;;;;;;;;;;;19.32;23.09;101146.53;5057522;28;19919;-46
2023/06/01 01:17:38;;;;;;;;;;;;;;;19.29;23.11;101141.53;5063513;28;19916;-49
2023/06/01 01:20:14;;;;;;;;;;;;;;;19.25;23.32;101143.09;5055241;28;19921;-47
2023/06/01 01:23:04;;;;;;;;;;;;;;;19.24;23.36;101149.59;5055718;28;19916;-45
2023/06/01 01:25:45;;;;;;;;;;;;;;;19.14;23.50;101145.53;5055466;28;19913;-46
2023/06/01 01:28:29;;;;;;;;;;;;;;;19.12;23.26;101153.13;5055082;28;20274;-46
2023/06/01 01:30:56;;;;;;;;;;;;;;;19.05;23.64;101157.00;5055250;28;19944;-44
2023/06/01 01:33:22;;;;;;;;;;;;;;;18.97;23.46;101166.34;5054856;28;19913;-44
2023/06/01 01:35:49;;;;;;;;;;;;;;;18.93;23.37;101165.97;5055204;28;19935;-45
2023/06/01 01:38:15;;;;;;;;;;;;;;;18.87;23.59;101166.91;5055005;28;19912;-44
2023/06/01 01:40:40;;;;;;;;;;;;;;;18.88;23.54;101168.56;5054857;28;19924;-44
2023/06/01 01:43:05;;;;;;;;;;;;;;;18.82;23.45;101166.78;5054979;28;19917;-45
2023/06/01 01:45:31;;;;;;;;;;;;;;;18.73;23.78;101168.13;5054921;28;20262;-46
2023/06/01 01:48:05;;;;;;;;;;;;;;;18.69;23.84;101169.66;5054178;28;19913;-46
2023/06/01 01:50:36;;;;;;;;;;;;;;;18.71;23.71;101167.53;5054928;28;19912;-47
2023/06/01 01:53:02;;;;;;;;;;;;;;;18.69;23.55;101166.94;5054852;28;20043;-49
2023/06/01 01:55:28;;;;;;;;;;;;;;;18.65;23.51;101169.28;5055138;28;19913;-46
2023/06/01 01:57:55;;;;;;;;;;;;;;;18.63;23.89;101162.38;5054344;28;20011;-47
2023/06/01 02:00:21;;;;;;;;;;;;;;;18.60;23.49;101154.72;5054474;28;19927;-46
2023/06/01 02:02:47;;;;;;;;;;;;;;;18.63;23.58;101157.81;5053662;28;19913;-46
2023/06/01 02:05:12;;;;;;;;;;;;;;;18.53;23.56;101158.31;5054004;28;19912;-44
2023/06/01 02:07:37;;;;;;;;;;;;;;;18.47;23.71;101161.97;5036533;28;19920;-44
2023/06/01 02:10:03;;;;;;;;;;;;;;;18.26;23.89;101127.94;5068601;28;20302;-46
2023/06/01 02:12:28;;;;;;;;;;;;;;;18.36;23.20;101160.84;5070976;28;19917;-46
2023/06/01 02:14:53;;;;;;;;;;;;;;;18.05;23.76;101167.28;5053803;28;19917;-48
2023/06/01 02:17:21;;;;;;;;;;;;;;;17.94;24.33;101174.31;5054156;28;19920;-51
2023/06/01 02:19:46;;;;;;;;;;;;;;;17.95;24.25;101175.13;5054037;28;19917;-48
2023/06/01 02:22:12;;;;;;;;;;;;;;;18.32;23.70;101175.16;5054188;28;20380;-47
2023/06/01 02:24:37;;;;;;;;;;;;;;;18.44;23.29;101183.34;5054188;28;19948;-47
2023/06/01 02:27:03;;;;;;;;;;;;;;;18.53;23.17;101171.09;5054367;28;19913;-44
2023/06/01 02:29:28;;;;;;;;;;;;;;;18.52;23.09;101173.00;5053968;28;19912;-47
2023/06/01 02:31:54;;;;;;;;;;;;;;;18.44;23.24;101186.91;5054035;28;19913;-49
2023/06/01 02:34:20;;;;;;;;;;;;;;;18.30;23.18;101188.13;5053822;28;19963;-44
2023/06/01 02:36:45;;;;;;;;;;;;;;;18.13;23.55;101180.59;5053785;28;19936;-46
2023/06/01 02:39:10;;;;;;;;;;;;;;;18.05;23.70;101180.88;5053628;28;19920;-50
2023/06/01 02:41:39;;;;;;;;;;;;;;;17.94;23.81;101182.47;5053965;28;19948;-47
2023/06/01 02:44:04;;;;;;;;;;;;;;;17.90;23.73;101183.94;5053637;28;20266;-51
2023/06/01 02:46:29;;;;;;;;;;;;;;;17.89;23.92;101193.16;5053735;28;19920;-44
2023/06/01 02:48:55;;;;;;;;;;;;;;;17.96;23.93;101182.25;5053910;28;20003;-46
2023/06/01 02:51:20;;;;;;;;;;;;;;;17.94;23.95;101190.63;5053902;28;19923;-49
2023/06/01 02:53:48;;;;;;;;;;;;;;;17.97;24.76;101192.88;5053591;28;20407;-44
2023/06/01 02:56:14;;;;;;;;;;;;;;;18.02;23.97;101199.53;5053587;28;19913;-44
2023/06/01 02:58:41;;;;;;;;;;;;;;;18.02;24.03;101200.34;5053258;28;19973;-47
2023/06/01 03:01:07;;;;;;;;;;;;;;;17.99;23.92;101201.63;5052058;28;20391;-46
2023/06/01 03:03:33;;;;;;;;;;;;;;;17.78;24.48;101207.47;5053548;28;19913;-46
2023/06/01 03:05:58;;;;;;;;;;;;;;;18.02;24.12;101211.22;5053416;28;19935;-49
2023/06/01 03:08:26;;;;;;;;;;;;;;;18.13;23.85;101215.91;5053330;28;19916;-45
2023/06/01 03:10:52;;;;;;;;;;;;;;;18.18;23.71;101223.38;5053450;28;19913;-49
2023/06/01 03:13:17;;;;;;;;;;;;;;;18.14;23.56;101230.34;5053419;28;20337;-48
2023/06/01 03:15:42;;;;;;;;;;;;;;;17.87;24.30;101232.50;5053094;28;19966;-45
2023/06/01 03:18:10;;;;;;;;;;;;;;;18.14;24.14;101224.91;5053401;28;19917;-45
2023/06/01 03:20:35;;;;;;;;;;;;;;;18.22;23.98;101240.94;5053385;28;19999;-46
2023/06/01 03:23:01;;;;;;;;;;;;;;;18.28;23.82;101234.59;5053107;28;20032;-45
2023/06/01 03:25:26;;;;;;;;;;;;;;;18.34;23.77;101230.13;5052852;28;20377;-45
2023/06/01 03:27:51;;;;;;;;;;;;;;;18.36;23.67;101236.16;5052673;28;19912;-45
2023/06/01 03:30:17;;;;;;;;;;;;;;;18.34;23.50;101239.13;5052888;28;20415;-48
2023/06/01 03:32:43;;;;;;;;;;;;;;;18.32;23.60;101235.78;5052808;28;19951;-49
2023/06/01 03:35:09;;;;;;;;;;;;;;;18.32;24.28;101241.22;5053034;28;19919;-47
2023/06/01 03:37:36;;;;;;;;;;;;;;;18.26;23.94;101236.69;5052930;28;20209;-45
2023/06/01 03:40:10;;;;;;;;;;;;;;;17.98;24.76;101242.66;5052616;28;20553;-46
2023/06/01 03:42:35;;;;;;;;;;;;;;;18.19;24.12;101236.75;5052754;28;19917;-49
2023/06/01 03:45:00;;;;;;;;;;;;;;;18.32;24.09;101235.78;5052668;28;19978;-46
2023/06/01 03:47:25;;;;;;;;;;;;;;;18.37;23.82;101235.13;5053022;28;19920;-48
2023/06/01 03:49:51;;;;;;;;;;;;;;;18.34;24.25;101241.00;5052806;28;19928;-46
2023/06/01 03:52:18;;;;;;;;;;;;;;;18.06;24.91;101246.94;5052744;28;20268;-44
2023/06/01 03:54:43;;;;;;;;;;;;;;;18.25;24.23;101245.91;5052656;28;20005;-46
2023/06/01 03:57:08;;;;;;;;;;;;;;;18.28;24.73;101244.63;5053100;28;19913;-46
2023/06/01 03:59:33;;;;;;;;;;;;;;;18.35;24.56;101238.06;5017928;28;19921;-46
2023/06/01 04:01:59;;;;;;;;;;;;;;;18.40;25.08;101240.09;5052043;28;19944;-50
2023/06/01 04:04:27;;;;;;;;;;;;;;;18.34;24.47;101239.13;5052213;28;19912;-48
2023/06/01 04:06:52;;;;;;;;;;;;;;;18.37;24.37;101246.81;5034524;28;20007;-49
2023/06/01 04:09:18;;;;;;;;;;;;;;;18.08;25.44;101240.22;5060790;28;20000;-46
2023/06/01 04:11:45;;;;;;;;;;;;;;;17.97;25.38;101249.94;5072205;28;20054;-44
2023/06/01 04:14:10;;;;;;;;;;;;;;;18.33;25.12;101242.91;5072566;28;19913;-48
2023/06/01 04:16:36;;;;;;;;;;;;;;;18.45;24.98;101244.88;5072599;28;20336;-46
2023/06/01 04:19:01;;;;;;;;;;;;;;;18.61;25.04;101230.66;5072131;28;19967;-46
2023/06/01 04:21:26;;;;;;;;;;;;;;;18.66;24.59;101238.94;5072356;28;19935;-46
2023/06/01 04:23:52;;;;;;;;;;;;;;;18.71;23.95;101228.22;5072240;28;19912;-47
2023/06/01 04:26:18;;;;;;;;;;;;;;;18.71;24.13;101230.94;5072187;28;19912;-44
2023/06/01 04:28:45;;;;;;;;;;;;;;;18.71;24.13;101236.38;5072480;28;19912;-46
2023/06/01 04:31:16;;;;;;;;;;;;;;;18.68;24.33;101236.00;5072348;28;20345;-44
2023/06/01 04:33:44;;;;;;;;;;;;;;;18.78;23.97;101236.31;5072257;28;19917;-44
2023/06/01 04:36:11;;;;;;;;;;;;;;;18.80;23.92;101245.06;5072392;28;19960;-46
2023/06/01 04:38:40;;;;;;;;;;;;;;;18.87;24.13;101240.41;5072088;28;20369;-48
2023/06/01 04:41:05;;;;;;;;;;;;;;;18.67;23.82;101207.16;5072065;28;19921;-47
2023/06/01 04:43:32;;;;;;;;;;;;;;;18.95;23.72;101248.22;5072227;28;19912;-45
2023/06/01 04:45:57;;;;;;;;;;;;;;;18.98;23.56;101249.69;5037454;28;19974;-45
2023/06/01 04:48:23;;;;;;;;;;;;;;;19.03;23.65;101254.41;5071928;28;20430;-48
2023/06/01 04:50:49;;;;;;;;;;;;;;;19.15;23.42;101247.13;5063224;28;19935;-48
2023/06/01 04:53:14;;;;;;;;;;;;;;;19.26;23.67;101243.63;5051958;28;19920;-47
2023/06/01 04:55:40;;;;;;;;;;;;;;;19.40;23.35;101236.06;5052006;28;20265;-47
2023/06/01 04:58:06;;;;;;;;;;;;;;;19.54;23.14;101242.97;5052295;28;19940;-45
2023/06/01 05:00:31;;;;;;;;;;;;;;;19.74;23.33;101244.56;5052485;28;19917;-48
2023/06/01 05:02:56;;;;;;;;;;;;;;;19.83;23.17;101240.41;5050943;28;19923;-50
2023/06/01 05:05:24;;;;;;;;;;;;;;;19.92;22.90;101249.06;5051795;28;19912;-51
2023/06/01 05:07:50;;;;;;;;;;;;;;;20.02;22.84;101243.88;5051903;28;19913;-47
2023/06/01 05:10:15;;;;;;;;;;;;;;;20.16;22.51;101249.09;5067812;28;19923;-46
2023/06/01 05:12:41;;;;;;;;;;;;;;;20.19;22.18;101248.59;5072292;28;19999;-48
2023/06/01 05:15:07;;;;;;;;;;;;;;;20.32;22.13;101245.63;5071745;28;20307;-47
2023/06/01 05:17:32;;;;;;;;;;;;;;;20.49;21.88;101243.81;5071893;28;19973;-45
2023/06/01 05:19:57;;;;;;;;;;;;;;;20.34;22.06;101240.75;5071564;28;19920;-46
2023/06/01 05:22:23;;;;;;;;;;;;;;;20.36;22.13;101246.81;5071833;28;19912;-48
2023/06/01 05:24:49;;;;;;;;;;;;;;;20.52;22.25;101244.41;5075496;28;20473;-48
2023/06/01 05:27:15;;;;;;;;;;;;;;;20.90;21.60;101246.56;5075244;28;20342;-46
2023/06/01 05:29:40;;;;;;;;;;;;;;;21.16;21.08;101244.31;5075078;28;19913;-45
2023/06/01 05:32:06;;;;;;;;;;;;;;;21.29;20.75;101240.47;5075158;28;19917;-46
2023/06/01 05:34:31;;;;;;;;;;;;;;;21.31;20.52;101243.78;5074892;28;19936;-47
2023/06/01 05:36:56;;;;;;;;;;;;;;;21.38;20.34;101237.06;5075441;28;20003;-49
2023/06/01 05:39:27;;;;;;;;;;;;;;;21.44;20.42;101240.72;5075030;28;19916;-43
2023/06/01 05:41:55;;;;;;;;;;;;;;;21.38;20.81;101238.97;5074897;28;19962;-46
2023/06/01 05:44:20;;;;;;;;;;;;;;;21.45;20.44;101235.03;5075095;28;20272;-45
2023/06/01 05:46:46;;;;;;;;;;;;;;;21.31;20.36;101236.41;5068230;28;19917;-49
2023/06/01 05:49:11;;;;;;;;;;;;;;;21.24;20.37;101247.47;5055437;28;19912;-44
2023/06/01 05:51:37;;;;;;;;;;;;;;;21.20;20.40;101246.31;5056251;28;19978;-46
2023/06/01 05:54:03;;;;;;;;;;;;;;;21.08;20.23;101243.66;5055354;28;20007;-51
2023/06/01 05:56:29;;;;;;;;;;;;;;;21.01;20.47;101247.59;5054884;28;19917;-45
2023/06/01 05:58:54;;;;;;;;;;;;;;;21.07;20.57;101250.16;5054420;28;19928;-44
2023/06/01 06:01:20;;;;;;;;;;;;;;;20.98;20.26;101253.53;5054180;28;20354;-44
2023/06/01 06:03:45;;;;;;;;;;;;;;;20.95;20.33;101252.13;5054795;28;20239;-44
2023/06/01 06:06:11;;;;;;;;;;;;;;;20.99;20.53;101247.00;5055075;28;20038;-45
2023/06/01 06:08:36;;;;;;;;;;;;;;;21.00;20.48;101246.75;5057027;28;19920;-49
2023/06/01 06:11:03;;;;;;;;;;;;;;;20.69;20.91;101246.16;5074541;28;19912;-44
2023/06/01 06:13:29;;;;;;;;;;;;;;;20.88;20.65;101251.44;5074386;28;19969;-45
2023/06/01 06:15:55;;;;;;;;;;;;;;;20.93;20.80;101248.81;5056237;28;19913;-49
2023/06/01 06:18:20;;;;;;;;;;;;;;;21.07;20.59;101247.44;5074192;28;19912;-44
2023/06/01 06:20:46;;;;;;;;;;;;;;;21.11;20.53;101242.31;5074291;28;19922;-46
2023/06/01 06:23:12;;;;;;;;;;;;;;;21.11;20.46;101249.69;5074338;28;19916;-49
2023/06/01 06:25:40;;;;;;;;;;;;;;;21.15;20.51;101259.03;5074100;28;20012;-47
2023/06/01 06:28:06;;;;;;;;;;;;;;;21.16;20.61;101258.81;5074266;28;20289;-50
2023/06/01 06:30:31;;;;;;;;;;;;;;;21.07;20.70;101252.91;5074078;28;19966;-48
2023/06/01 06:32:56;;;;;;;;;;;;;;;21.19;20.62;101254.75;5074059;28;19912;-45
2023/06/01 06:35:22;;;;;;;;;;;;;;;21.25;20.27;101260.06;5073918;28;19912;-45
2023/06/01 06:37:47;;;;;;;;;;;;;;;21.29;20.37;101260.41;5073919;28;19919;-48
2023/06/01 06:40:12;;;;;;;;;;;;;;;21.23;20.55;101262.22;5055075;28;20008;-50
2023/06/01 06:42:38;;;;;;;;;;;;;;;21.25;20.63;101264.72;5053754;28;20392;-45
2023/06/01 06:45:04;;;;;;;;;;;;;;;21.22;20.63;101267.91;5053772;28;19939;-47
2023/06/01 06:47:30;;;;;;;;;;;;;;;21.37;20.22;101273.66;5053809;28;19959;-49
2023/06/01 06:49:55;;;;;;;;;;;;;;;21.34;20.20;101282.38;5035844;28;19952;-44
2023/06/01 06:52:22;;;;;;;;;;;;;;;21.36;20.11;101279.34;5035645;28;20705;-46
2023/06/01 06:54:47;;;;;;;;;;;;;;;21.36;19.90;101271.16;5052999;28;19921;-50
2023/06/01 06:57:13;;;;;;;;;;;;;;;21.41;19.97;101274.84;5052930;28;19962;-47
2023/06/01 06:59:38;;;;;;;;;;;;;;;21.35;19.67;101277.72;5052693;28;19920;-47
2023/06/01 07:02:03;;;;;;;;;;;;;;;21.41;20.24;101287.66;5052487;28;20410;-49
2023/06/01 07:04:29;;;;;;;;;;;;;;;21.46;20.11;101293.25;5052839;28;19913;-47
2023/06/01 07:06:54;;;;;;;;;;;;;;;21.35;20.28;101300.41;5052969;28;20348;-51
2023/06/01 07:09:21;;;;;;;;;;;;;;;21.49;19.97;101300.97;5061691;28;19912;-49
2023/06/01 07:11:47;;;;;;;;;;;;;;;21.46;20.38;101298.72;5073186;28;20007;-46
2023/06/01 07:14:13;;;;;;;;;;;;;;;21.36;20.31;101302.06;5073284;28;20258;-46
2023/06/01 07:16:38;;;;;;;;;;;;;;;21.50;20.08;101304.53;5073496;28;20011;-47
2023/06/01 07:19:03;;;;;;;;;;;;;;;21.48;20.09;101302.03;5072945;28;19928;-47
2023/06/01 07:21:29;;;;;;;;;;;;;;;21.26;20.53;101304.59;5073216;28;19913;-47
2023/06/01 07:23:57;;;;;;;;;;;;;;;21.23;20.95;101308.66;5073193;28;19916;-46
2023/06/01 07:26:25;;;;;;;;;;;;;;;21.31;20.86;101299.25;5073066;28;20269;-50
2023/06/01 07:28:52;;;;;;;;;;;;;;;21.61;20.35;101304.44;5073262;28;20322;-50
2023/06/01 07:31:18;;;;;;;;;;;;;;;21.82;19.80;101315.72;5073022;28;19919;-50
2023/06/01 07:33:43;;;;;;;;;;;;;;;21.94;19.38;101308.28;5072646;28;19912;-48
2023/06/01 07:36:08;;;;;;;;;;;;;;;22.11;19.00;101310.19;5072796;28;19920;-47
2023/06/01 07:38:34;;;;;;;;;;;;;;;22.12;18.78;101304.47;5072026;28;19938;-47
2023/06/01 07:40:59;;;;;;;;;;;;;;;22.22;18.63;101309.25;5052741;28;20368;-45
2023/06/01 07:43:25;;;;;;;;;;;;;;;22.27;18.66;101306.63;5052421;28;19913;-47
2023/06/01 07:45:50;;;;;;;;;;;;;;;22.37;18.40;101314.97;5051567;28;19925;-50
2023/06/01 07:48:16;;;;;;;;;;;;;;;22.44;18.66;101306.59;5052435;28;20003;-47
2023/06/01 07:50:41;;;;;;;;;;;;;;;22.51;18.89;101312.72;5052060;28;20430;-44
2023/06/01 07:53:07;;;;;;;;;;;;;;;22.56;18.93;101320.16;5052592;28;19913;-47
2023/06/01 07:55:32;;;;;;;;;;;;;;;22.49;18.77;101312.16;5052724;28;19917;-50
2023/06/01 07:57:58;;;;;;;;;;;;;;;22.59;18.91;101309.53;5052275;28;20381;-47
2023/06/01 08:00:23;;;;;;;;;;;;;;;22.68;19.03;101320.03;5034221;28;19972;-45
2023/06/01 08:02:48;;;;;;;;;;;;;;;22.81;19.25;101317.75;5051421;28;19940;-44
2023/06/01 08:05:17;;;;;;;;;;;;;;;22.69;19.52;101319.78;5052383;28;19958;-48
2023/06/01 08:07:42;;;;;;;;;;;;;;;22.77;19.51;101326.72;5052163;28;19934;-46
2023/06/01 08:10:11;;;;;;;;;;;;;;;22.92;19.06;101331.56;5067005;28;20349;-46
2023/06/01 08:12:36;;;;;;;;;;;;;;;22.92;19.11;101337.91;5072142;28;19943;-46
2023/06/01 08:15:03;;;;;;;;;;;;;;;23.23;18.73;101331.97;5072372;28;19958;-47
2023/06/01 08:17:29;;;;;;;;;;;;;;;23.32;18.66;101335.91;5072357;28;19936;-44
2023/06/01 08:19:55;;;;;;;;;;;;;;;23.19;18.64;101331.66;5072041;28;19917;-48
2023/06/01 08:22:23;;;;;;;;;;;;;;;23.36;18.53;101339.78;5072702;28;19939;-47
2023/06/01 08:24:51;;;;;;;;;;;;;;;23.41;18.49;101337.09;5072438;28;19919;-46
2023/06/01 08:27:21;;;;;;;;;;;;;;;23.42;18.16;101327.81;5072875;28;19912;-44
2023/06/01 08:29:47;;;;;;;;;;;;;;;23.45;18.08;101316.31;5072084;28;20545;-48
2023/06/01 08:32:12;;;;;;;;;;;;;;;23.41;18.41;101328.06;5072177;28;19920;-47
2023/06/01 08:34:38;;;;;;;;;;;;;;;23.68;17.92;101326.13;5072152;28;20448;-45
2023/06/01 08:37:03;;;;;;;;;;;;;;;23.78;18.18;101325.38;5052686;28;19913;-45
2023/06/01 08:39:28;;;;;;;;;;;;;;;23.98;17.96;101322.03;5051755;28;19916;-45
2023/06/01 08:42:01;;;;;;;;;;;;;;;24.17;17.86;101322.44;5034183;28;20266;-48
2023/06/01 08:44:27;;;;;;;;;;;;;;;24.34;17.52;101325.81;5052354;28;19921;-44
2023/06/01 08:46:54;;;;;;;;;;;;;;;24.67;17.38;101310.13;5051862;28;20015;-44
2023/06/01 08:49:19;;;;;;;;;;;;;;;24.90;16.94;101316.25;5051959;28;20391;-44
2023/06/01 08:51:48;;;;;;;;;;;;;;;24.81;17.09;101315.13;5034181;28;19913;-48
2023/06/01 08:54:13;;;;;;;;;;;;;;;24.84;16.58;101311.84;5051927;28;20385;-44
2023/06/01 08:56:42;;;;;;;;;;;;;;;24.78;16.86;101319.25;5052012;28;19927;-49
2023/06/01 08:59:07;;;;;;;;;;;;;;;24.60;16.84;101316.94;5054521;28;19975;-45
2023/06/01 09:01:33;;;;;;;;;;;;;;;24.56;17.02;101316.66;5054936;28;19917;-47
2023/06/01 09:03:58;;;;;;;;;;;;;;;24.31;17.13;101322.78;5055816;28;19912;-44
2023/06/01 09:06:24;;;;;;;;;;;;;;;24.46;17.46;101325.66;5055609;28;19912;-46
2023/06/01 09:08:49;;;;;;;;;;;;;;;24.54;17.01;101310.59;5060076;28;19948;-47
2023/06/01 09:11:15;;;;;;;;;;;;;;;24.43;17.28;101319.84;5075482;28;19912;-49
2023/06/01 09:13:40;;;;;;;;;;;;;;;24.43;16.96;101312.44;5075678;28;19916;-46
2023/06/01 09:16:06;;;;;;;;;;;;;;;24.77;17.15;101322.25;5075585;28;19923;-47
2023/06/01 09:18:32;;;;;;;;;;;;;;;25.06;16.64;101320.72;5075548;28;19918;-49
2023/06/01 09:21:13;;;;;;;;;;;;;;;25.22;16.38;101310.59;5075895;28;20254;-47
2023/06/01 09:23:39;;;;;;;;;;;;;;;25.19;16.52;101322.13;5075313;28;19920;-46
2023/06/01 09:26:05;;;;;;;;;;;;;;;25.17;16.21;101318.81;5075430;28;19979;-44
2023/06/01 09:28:51;;;;;;;;;;;;;;;25.19;16.50;101321.31;5075662;28;20041;-49
2023/06/01 09:31:35;;;;;;;;;;;;;;;25.16;16.71;101333.66;5072830;28;20385;-44
2023/06/01 09:34:01;;;;;;;;;;;;;;;24.98;16.37;101325.91;5055227;28;19912;-47
2023/06/01 09:36:26;;;;;;;;;;;;;;;25.08;16.40;101320.44;5037321;28;19956;-46
2023/06/01 09:38:59;;;;;;;;;;;;;;;25.12;16.64;101327.88;5056679;28;19917;-44
2023/06/01 09:41:25;;;;;;;;;;;;;;;25.26;16.62;101336.47;5056060;28;19916;-48
2023/06/01 09:43:50;;;;;;;;;;;;;;;25.33;16.60;101327.94;5055024;28;20265;-44
2023/06/01 09:46:16;;;;;;;;;;;;;;;25.25;16.50;101334.00;5055122;28;19921;-47
2023/06/01 09:48:45;;;;;;;;;;;;;;;25.23;16.17;101333.41;5055117;28;20397;-49
2023/06/01 09:51:31;;;;;;;;;;;;;;;25.41;16.51;101345.88;5055182;28;19919;-47
2023/06/01 09:53:56;;;;;;;;;;;;;;;25.26;16.63;101338.41;5054584;28;19941;-50
2023/06/01 09:56:21;;;;;;;;;;;;;;;25.11;16.42;101334.47;5054893;28;19920;-49
2023/06/01 09:58:47;;;;;;;;;;;;;;;25.37;16.72;101340.09;5054638;28;20004;-45
2023/06/01 10:01:15;;;;;;;;;;;;;;;25.47;15.97;101339.25;5053861;28;19924;-47
2023/06/01 10:03:44;;;;;;;;;;;;;;;25.61;15.75;101325.78;5054503;28;19913;-51
2023/06/01 10:06:14;;;;;;;;;;;;;;;25.91;15.98;101321.41;5037367;28;19974;-48
2023/06/01 10:08:40;;;;;;;;;;;;;;;26.21;16.11;101326.09;5056968;28;19912;-52
2023/06/01 10:11:07;;;;;;;;;;;;;;;26.11;15.93;101326.09;5074631;28;19948;-47
2023/06/01 10:13:32;;;;;;;;;;;;;;;26.07;15.84;101328.56;5074849;28;19987;-45
2023/06/01 10:15:57;;;;;;;;;;;;;;;25.79;16.10;101339.00;5074289;28;20324;-47
2023/06/01 10:18:23;;;;;;;;;;;;;;;26.11;15.92;101343.44;5074162;28;19991;-44
2023/06/01 10:20:49;;;;;;;;;;;;;;;26.48;15.78;101335.94;5074190;28;19916;-48
2023/06/01 10:23:15;;;;;;;;;;;;;;;26.78;15.44;101344.16;5074293;28;19920;-46
2023/06/01 10:25:43;;;;;;;;;;;;;;;26.59;15.23;101345.84;5074372;28;20007;-49
2023/06/01 10:28:10;;;;;;;;;;;;;;;26.38;15.50;101343.13;5066544;28;19948;-47
2023/06/01 10:30:35;;;;;;;;;;;;;;;26.42;15.62;101335.13;5054477;28;19912;-51
2023/06/01 10:33:01;;;;;;;;;;;;;;;26.71;15.21;101340.88;5054344;28;20277;-51
2023/06/01 10:35:26;;;;;;;;;;;;;;;27.03;14.82;101334.13;5054026;28;20000;-48
2023/06/01 10:38:06;;;;;;;;;;;;;;;27.32;14.98;101341.72;5054268;28;20295;-45
2023/06/01 10:40:35;;;;;;;;;;;;;;;27.81;14.66;101344.41;5053801;28;19921;-48
2023/06/01 10:43:00;;;;;;;;;;;;;;;28.18;14.63;101343.00;5053882;28;19913;-50
2023/06/01 10:45:39;;;;;;;;;;;;;;;28.54;14.30;101336.31;5054015;28;19971;-47
2023/06/01 10:48:05;;;;;;;;;;;;;;;29.05;13.53;101343.13;5053950;28;20420;-50
2023/06/01 10:50:31;;;;;;;;;;;;;;;29.12;13.69;101340.81;5036125;28;19913;-46
2023/06/01 10:52:57;;;;;;;;;;;;;;;29.09;13.27;101346.97;5054025;28;20319;-46
2023/06/01 10:55:23;;;;;;;;;;;;;;;29.17;13.15;101345.50;5053487;28;20369;-50
2023/06/01 10:57:48;;;;;;;;;;;;;;;29.52;12.75;101341.41;5053286;28;19940;-52
2023/06/01 11:00:14;;;;;;;;;;;;;;;30.08;13.01;101343.25;5035714;28;20266;-46
2023/06/01 11:02:48;;;;;;;;;;;;;;;30.66;12.23;101333.63;5052582;28;19913;-50
2023/06/01 11:05:33;;;;;;;;;;;;;;;31.14;11.95;101339.84;5053535;28;19917;-50
2023/06/01 11:07:58;;;;;;;;;;;;;;;31.47;12.13;101342.44;5053284;28;20280;-49
2023/06/01 11:10:42;;;;;;;;;;;;;;;31.56;11.45;101329.47;5070261;28;19912;-50
2023/06/01 11:13:11;;;;;;;;;;;;;;;31.73;11.62;101343.47;5073562;28;20003;-46
2023/06/01 11:15:38;;;;;;;;;;;;;;;31.65;10.87;101335.91;5073217;28;19916;-48
2023/06/01 11:18:22;;;;;;;;;;;;;;;31.79;11.29;101331.09;5072969;28;19913;-50
2023/06/01 11:20:49;;;;;;;;;;;;;;;31.87;11.66;101331.47;5072254;28;19925;-51
2023/06/01 11:23:14;;;;;;;;;;;;;;;32.07;11.23;101335.69;5073097;28;19919;-50
2023/06/01 11:25:42;;;;;;;;;;;;;;;32.24;11.21;101343.31;5054912;28;19939;-52
2023/06/01 11:28:08;;;;;;;;;;;;;;;32.32;11.29;101332.25;5052957;28;20291;-50
2023/06/01 11:30:35;;;;;;;;;;;;;;;32.60;10.83;101335.66;5052941;28;19913;-47
2023/06/01 11:33:01;;;;;;;;;;;;;;;32.78;10.23;101313.44;5052741;28;19917;-46
2023/06/01 11:35:27;;;;;;;;;;;;;;;32.85;10.21;101316.56;5034743;28;19956;-48
2023/06/01 11:37:53;;;;;;;;;;;;;;;33.10;10.73;101305.81;5052802;28;20459;-50
2023/06/01 11:40:20;;;;;;;;;;;;;;;33.17;9.85;101308.94;5052781;28;19943;-49
2023/06/01 11:42:46;;;;;;;;;;;;;;;33.33;9.65;101309.28;5052981;28;19919;-49
2023/06/01 11:45:15;;;;;;;;;;;;;;;33.57;9.75;101325.47;5052933;28;19916;-51
2023/06/01 11:47:40;;;;;;;;;;;;;;;33.65;9.55;101321.06;5052771;28;19939;-48
2023/06/01 11:50:06;;;;;;;;;;;;;;;33.67;9.98;101314.00;5052844;28;19917;-49
2023/06/01 11:52:31;;;;;;;;;;;;;;;33.46;9.16;101329.75;5052920;28;19944;-53
2023/06/01 11:55:03;;;;;;;;;;;;;;;33.74;9.94;101317.09;5052868;28;20326;-51
2023/06/01 11:57:29;;;;;;;;;;;;;;;34.10;9.77;101326.19;5052687;28;19914;-50
2023/06/01 11:59:54;;;;;;;;;;;;;;;34.57;9.43;101322.63;5052419;28;20396;-51
2023/06/01 12:02:27;;;;;;;;;;;;;;;34.79;9.63;101313.97;5051770;28;19913;-51
2023/06/01 12:05:01;;;;;;;;;;;;;;;35.11;8.72;101319.97;5052469;28;19912;-51
2023/06/01 12:07:27;;;;;;;;;;;;;;;34.80;8.18;101312.81;5052379;28;19975;-48
2023/06/01 12:09:53;;;;;;;;;;;;;;;35.07;8.01;101311.47;5065143;28;19952;-47
2023/06/01 12:12:20;;;;;;;;;;;;;;;35.18;8.03;101313.84;5072531;28;20427;-50
2023/06/01 12:14:45;;;;;;;;;;;;;;;35.17;8.04;101304.66;5072615;28;19958;-50
2023/06/01 12:17:11;;;;;;;;;;;;;;;35.29;8.29;101312.31;5072533;28;19959;-50
2023/06/01 12:19:44;;;;;;;;;;;;;;;35.25;8.26;101308.56;5072198;28;19927;-48
2023/06/01 12:22:10;;;;;;;;;;;;;;;35.22;7.38;101317.63;5032693;28;19920;-48
2023/06/01 12:24:36;;;;;;;;;;;;;;;35.42;8.17;101314.00;5032452;28;20000;-49
2023/06/01 12:27:02;;;;;;;;;;;;;;;35.86;8.09;101319.19;5032643;28;20013;-50
2023/06/01 12:29:37;;;;;;;;;;;;;;;35.93;7.64;101308.25;5032511;28;19920;-46
2023/06/01 12:32:03;;;;;;;;;;;;;;;36.34;7.83;101314.84;5043219;28;19916;-52
2023/06/01 12:34:29;;;;;;;;;;;;;;;36.80;6.92;101304.34;5056059;28;19913;-50
2023/06/01 12:36:54;;;;;;;;;;;;;;;37.33;7.64;101309.97;5056188;28;20388;-49